createdAt,value
2022-11-05T00:00:26.215Z,10.74
2022-11-05T00:03:13.171Z,10.80
2022-11-05T00:05:41.235Z,10.70
2022-11-05T00:08:08.796Z,10.55
2022-11-05T00:10:37.756Z,10.51
2022-11-05T00:13:08.308Z,10.56
2022-11-05T00:15:35.793Z,10.52
2022-11-05T00:18:03.811Z,10.53
2022-11-05T00:20:33.106Z,10.45
2022-11-05T00:23:01.470Z,10.44
2022-11-05T00:25:29.505Z,10.16
2022-11-05T00:28:01.046Z,9.97
2022-11-05T00:30:29.625Z,9.79
2022-11-05T00:33:01.701Z,9.67
2022-11-05T00:35:29.764Z,9.71
2022-11-05T00:37:58.601Z,9.70
2022-11-05T00:40:26.290Z,9.65
2022-11-05T00:42:53.966Z,9.59
2022-11-05T00:45:21.890Z,9.54
2022-11-05T00:47:49.933Z,9.51
2022-11-05T00:50:17.992Z,9.53
2022-11-05T00:52:49.212Z,9.51
2022-11-05T00:55:18.255Z,9.56
2022-11-05T00:57:46.001Z,9.63
2022-11-05T01:00:15.137Z,9.48
2022-11-05T01:02:42.587Z,9.46
2022-11-05T01:05:10.522Z,9.48
2022-11-05T01:07:37.694Z,9.47
2022-11-05T01:10:06.601Z,9.56
2022-11-05T01:12:35.735Z,9.53
2022-11-05T01:15:03.767Z,9.42
2022-11-05T01:17:31.076Z,9.45
2022-11-05T01:19:58.661Z,9.49
2022-11-05T01:22:26.084Z,9.45
2022-11-05T01:24:54.287Z,9.38
2022-11-05T01:27:21.878Z,9.34
2022-11-05T01:29:51.031Z,9.35
2022-11-05T01:32:18.329Z,9.28
2022-11-05T01:34:46.179Z,9.28
2022-11-05T01:37:13.447Z,9.26
2022-11-05T01:39:41.056Z,9.32
2022-11-05T01:42:15.326Z,9.37
2022-11-05T01:44:54.080Z,9.42
2022-11-05T01:47:29.283Z,9.38
2022-11-05T01:50:01.141Z,9.28
2022-11-05T01:52:30.030Z,9.37
2022-11-05T01:55:00.414Z,9.34
2022-11-05T01:57:28.838Z,9.34
2022-11-05T02:00:00.156Z,9.40
2022-11-05T02:02:28.196Z,9.46
2022-11-05T02:05:00.669Z,9.41
2022-11-05T02:07:28.955Z,9.37
2022-11-05T02:10:01.362Z,9.31
2022-11-05T02:12:29.916Z,9.32
2022-11-05T02:14:59.500Z,9.25
2022-11-05T02:17:45.224Z,9.27
2022-11-05T02:20:25.033Z,9.23
2022-11-05T02:23:14.336Z,9.27
2022-11-05T02:26:18.592Z,9.29
2022-11-05T02:29:18.949Z,9.28
2022-11-05T02:31:56.032Z,9.34
2022-11-05T02:34:29.062Z,9.28
2022-11-05T02:37:02.758Z,9.26
2022-11-05T02:39:41.675Z,9.35
2022-11-05T02:42:20.438Z,9.20
2022-11-05T02:44:53.114Z,9.28
2022-11-05T02:47:27.082Z,9.31
2022-11-05T02:50:03.250Z,9.26
2022-11-05T02:52:38.272Z,9.23
2022-11-05T02:55:22.455Z,9.32
2022-11-05T02:57:58.395Z,9.19
2022-11-05T03:00:59.243Z,9.26
2022-11-05T03:03:34.751Z,9.28
2022-11-05T03:06:15.715Z,9.21
2022-11-05T03:09:07.231Z,9.32
2022-11-05T03:11:41.993Z,9.33
2022-11-05T03:14:20.740Z,9.36
2022-11-05T03:16:52.814Z,9.27
2022-11-05T03:19:30.867Z,9.24
2022-11-05T03:22:02.785Z,9.26
2022-11-05T03:24:34.489Z,9.34
2022-11-05T03:27:10.878Z,9.27
2022-11-05T03:29:44.781Z,9.34
2022-11-05T03:32:14.814Z,9.29
2022-11-05T03:34:48.345Z,9.27
2022-11-05T03:37:20.230Z,9.35
2022-11-05T03:39:51.105Z,9.41
2022-11-05T03:42:24.229Z,9.43
2022-11-05T03:44:56.800Z,9.52
2022-11-05T03:47:29.998Z,9.46
2022-11-05T03:50:07.314Z,9.57
2022-11-05T03:52:40.225Z,9.58
2022-11-05T03:55:08.203Z,9.63
2022-11-05T03:57:40.747Z,9.64
2022-11-05T04:00:10.765Z,9.59
2022-11-05T04:02:38.987Z,9.56
2022-11-05T04:05:08.639Z,9.55
2022-11-05T04:07:35.911Z,9.57
2022-11-05T04:10:03.830Z,9.57
2022-11-05T04:12:31.976Z,9.61
2022-11-05T04:14:59.312Z,9.52
2022-11-05T04:17:27.738Z,9.49
2022-11-05T04:19:55.498Z,9.38
2022-11-05T04:22:25.390Z,9.42
2022-11-05T04:24:53.198Z,9.53
2022-11-05T04:27:20.548Z,9.48
2022-11-05T04:29:48.549Z,9.45
2022-11-05T04:32:15.931Z,9.51
2022-11-05T04:34:43.867Z,9.56
2022-11-05T04:37:11.157Z,9.48
2022-11-05T04:39:40.193Z,9.52
2022-11-05T04:42:07.469Z,9.48
2022-11-05T04:44:35.750Z,9.49
2022-11-05T04:47:02.986Z,9.54
2022-11-05T04:49:30.650Z,9.48
2022-11-05T04:51:57.860Z,9.46
2022-11-05T04:54:25.513Z,9.54
2022-11-05T04:56:54.255Z,9.60
2022-11-05T04:59:21.917Z,9.44
2022-11-05T05:01:51.692Z,9.41
2022-11-05T05:04:19.371Z,9.36
2022-11-05T05:06:46.745Z,9.34
2022-11-05T05:09:15.100Z,9.46
2022-11-05T05:11:42.505Z,9.42
2022-11-05T05:14:11.694Z,9.48
2022-11-05T05:16:38.953Z,9.48
2022-11-05T05:19:06.499Z,9.51
2022-11-05T05:21:34.013Z,9.45
2022-11-05T05:24:01.465Z,9.44
2022-11-05T05:26:29.471Z,9.49
2022-11-05T05:28:57.078Z,9.62
2022-11-05T05:31:26.182Z,9.54
2022-11-05T05:33:53.911Z,9.61
2022-11-05T05:36:22.438Z,9.57
2022-11-05T05:38:49.963Z,9.53
2022-11-05T05:41:17.808Z,9.57
2022-11-05T05:43:47.589Z,9.55
2022-11-05T05:46:17.584Z,9.50
2022-11-05T05:48:49.849Z,9.54
2022-11-05T05:51:18.834Z,9.52
2022-11-05T05:53:46.323Z,9.42
2022-11-05T05:56:14.386Z,9.34
2022-11-05T05:58:41.923Z,9.39
2022-11-05T06:01:18.573Z,9.38
2022-11-05T06:03:48.880Z,9.37
2022-11-05T06:06:18.278Z,9.35
2022-11-05T06:08:45.639Z,9.47
2022-11-05T06:11:13.559Z,9.41
2022-11-05T06:13:41.091Z,9.45
2022-11-05T06:16:09.632Z,9.56
2022-11-05T06:18:37.671Z,9.60
2022-11-05T06:21:08.737Z,9.51
2022-11-05T06:23:37.879Z,9.55
2022-11-05T06:26:07.501Z,9.49
2022-11-05T06:28:35.823Z,9.50
2022-11-05T06:31:04.565Z,9.51
2022-11-05T06:33:31.800Z,9.67
2022-11-05T06:36:00.634Z,9.64
2022-11-05T06:38:32.768Z,9.47
2022-11-05T06:41:05.746Z,9.52
2022-11-05T06:43:36.757Z,9.51
2022-11-05T06:46:05.802Z,9.73
2022-11-05T06:48:34.957Z,9.82
2022-11-05T06:51:03.366Z,9.75
2022-11-05T06:53:32.584Z,9.74
2022-11-05T06:56:02.676Z,9.68
2022-11-05T06:58:30.264Z,9.79
2022-11-05T07:01:01.184Z,9.76
2022-11-05T07:03:29.101Z,9.67
2022-11-05T07:06:15.054Z,9.71
2022-11-05T07:08:43.878Z,9.94
2022-11-05T07:11:11.587Z,9.98
2022-11-05T07:13:39.068Z,9.91
2022-11-05T07:16:07.557Z,9.98
2022-11-05T07:18:34.779Z,10.05
2022-11-05T07:21:03.062Z,10.19
2022-11-05T07:23:30.477Z,10.00
2022-11-05T07:25:59.975Z,9.98
2022-11-05T07:28:27.345Z,10.10
2022-11-05T07:30:55.360Z,10.08
2022-11-05T07:33:22.859Z,10.12
2022-11-05T07:35:50.760Z,10.14
2022-11-05T07:38:17.951Z,10.12
2022-11-05T07:40:45.641Z,10.28
2022-11-05T07:43:14.699Z,10.35
2022-11-05T07:45:42.602Z,10.36
2022-11-05T07:48:10.121Z,10.26
2022-11-05T07:50:38.257Z,10.19
2022-11-05T07:53:07.404Z,10.45
2022-11-05T07:55:35.428Z,10.39
2022-11-05T07:58:03.496Z,10.42
2022-11-05T08:00:33.528Z,10.48
2022-11-05T08:03:07.894Z,10.50
2022-11-05T08:05:38.211Z,10.49
2022-11-05T08:08:07.181Z,10.50
2022-11-05T08:10:35.491Z,10.57
2022-11-05T08:13:03.297Z,10.51
2022-11-05T08:15:33.420Z,10.59
2022-11-05T08:18:01.470Z,10.78
2022-11-05T08:20:32.329Z,10.91
2022-11-05T08:22:59.910Z,10.84
2022-11-05T08:25:28.221Z,10.96
2022-11-05T08:27:56.687Z,10.89
2022-11-05T08:30:25.600Z,10.84
2022-11-05T08:32:58.947Z,10.94
2022-11-05T08:35:28.145Z,11.20
2022-11-05T08:37:57.454Z,11.17
2022-11-05T08:40:25.401Z,11.08
2022-11-05T08:42:53.274Z,11.18
2022-11-05T08:45:21.347Z,11.04
2022-11-05T08:47:48.860Z,11.18
2022-11-05T08:50:18.178Z,11.22
2022-11-05T08:52:45.343Z,11.24
2022-11-05T08:55:13.146Z,11.38
2022-11-05T08:57:40.405Z,11.39
2022-11-05T09:00:09.950Z,11.35
2022-11-05T09:02:37.646Z,11.41
2022-11-05T09:05:05.911Z,11.45
2022-11-05T09:07:34.850Z,11.43
2022-11-05T09:10:02.527Z,11.35
2022-11-05T09:12:29.749Z,11.38
2022-11-05T09:14:57.794Z,11.50
2022-11-05T09:17:25.455Z,11.60
2022-11-05T09:19:53.356Z,11.51
2022-11-05T09:22:20.581Z,11.63
2022-11-05T09:24:49.906Z,11.64
2022-11-05T09:27:17.183Z,11.65
2022-11-05T09:29:44.822Z,11.61
2022-11-05T09:32:12.345Z,11.45
2022-11-05T09:34:40.094Z,11.30
2022-11-05T09:37:07.470Z,11.29
2022-11-05T09:39:35.395Z,11.48
2022-11-05T09:42:08.477Z,11.43
2022-11-05T09:44:42.671Z,11.54
2022-11-05T09:47:15.148Z,11.49
2022-11-05T09:49:46.522Z,11.57
2022-11-05T09:52:18.866Z,11.63
2022-11-05T09:54:46.754Z,11.72
2022-11-05T09:57:19.118Z,11.65
2022-11-05T09:59:50.763Z,11.66
2022-11-05T10:02:21.045Z,11.62
2022-11-05T10:04:51.425Z,11.71
2022-11-05T10:07:23.695Z,11.84
2022-11-05T10:09:56.446Z,11.70
2022-11-05T10:12:31.773Z,11.84
2022-11-05T10:15:10.579Z,11.87
2022-11-05T10:17:40.920Z,11.93
2022-11-05T10:20:16.292Z,11.88
2022-11-05T10:22:49.272Z,11.88
2022-11-05T10:25:20.112Z,11.92
2022-11-05T10:27:52.161Z,11.93
2022-11-05T10:30:20.822Z,12.05
2022-11-05T10:32:49.589Z,12.20
2022-11-05T10:35:19.892Z,12.13
2022-11-05T10:37:47.732Z,12.28
2022-11-05T10:40:22.948Z,12.28
2022-11-05T10:43:02.063Z,12.37
2022-11-05T10:45:37.255Z,12.26
2022-11-05T10:48:25.475Z,12.36
2022-11-05T10:50:53.859Z,12.17
2022-11-05T10:53:27.116Z,12.32
2022-11-05T10:55:54.733Z,12.22
2022-11-05T10:58:27.444Z,12.04
2022-11-05T11:01:08.396Z,12.09
2022-11-05T11:03:41.466Z,12.08
2022-11-05T11:06:20.311Z,12.12
2022-11-05T11:08:49.390Z,12.14
2022-11-05T11:11:27.907Z,12.16
2022-11-05T11:14:18.494Z,12.22
2022-11-05T11:16:48.491Z,12.13
2022-11-05T11:19:26.417Z,12.11
2022-11-05T11:22:19.204Z,12.23
2022-11-05T11:24:49.017Z,12.39
2022-11-05T11:27:21.294Z,12.26
2022-11-05T11:29:55.254Z,12.29
2022-11-05T11:32:27.585Z,12.54
2022-11-05T11:34:56.082Z,12.54
2022-11-05T11:37:28.238Z,12.77
2022-11-05T11:40:00.042Z,12.87
2022-11-05T11:42:29.838Z,13.03
2022-11-05T11:45:01.576Z,13.02
2022-11-05T11:47:29.405Z,12.91
2022-11-05T11:49:58.030Z,12.81
2022-11-05T11:52:29.780Z,12.74
2022-11-05T11:55:20.083Z,12.53
2022-11-05T11:57:49.890Z,12.63
2022-11-05T12:00:20.579Z,12.86
2022-11-05T12:03:05.410Z,13.10
2022-11-05T12:05:55.040Z,12.97
2022-11-05T12:08:36.407Z,12.85
2022-11-05T12:11:09.688Z,12.83
2022-11-05T12:13:58.468Z,12.80
2022-11-05T12:16:50.896Z,13.02
2022-11-05T12:19:31.946Z,12.80
2022-11-05T12:22:05.829Z,12.73
2022-11-05T12:25:18.105Z,12.74
2022-11-05T12:28:01.646Z,12.79
2022-11-05T12:30:37.459Z,12.80
2022-11-05T12:33:25.859Z,12.94
2022-11-05T12:36:06.813Z,13.14
2022-11-05T12:38:55.719Z,13.41
2022-11-05T12:41:28.039Z,13.59
2022-11-05T12:44:13.610Z,13.75
2022-11-05T12:46:49.437Z,13.86
2022-11-05T12:52:26.660Z,13.73
2022-11-05T12:55:01.616Z,13.79
2022-11-05T12:57:31.234Z,13.86
2022-11-05T13:00:05.904Z,14.07
2022-11-05T13:02:40.861Z,14.38
2022-11-05T13:05:16.663Z,14.41
2022-11-05T13:07:53.551Z,14.43
2022-11-05T13:10:28.331Z,14.52
2022-11-05T13:13:02.600Z,14.63
2022-11-05T13:15:34.073Z,14.57
2022-11-05T13:18:05.632Z,14.54
2022-11-05T13:20:37.713Z,14.47
2022-11-05T13:23:16.996Z,14.42
2022-11-05T13:25:51.244Z,14.42
2022-11-05T13:28:26.799Z,14.49
2022-11-05T13:31:00.361Z,14.66
2022-11-05T13:33:32.310Z,14.62
2022-11-05T13:36:05.367Z,14.56
2022-11-05T13:38:38.282Z,14.54
2022-11-05T13:41:21.661Z,14.65
2022-11-05T13:44:15.465Z,14.75
2022-11-05T13:47:02.816Z,14.67
2022-11-05T13:49:57.239Z,14.68
2022-11-05T13:52:43.401Z,14.77
2022-11-05T13:58:47.295Z,14.93
2022-11-05T14:01:37.612Z,14.75
2022-11-05T14:04:06.124Z,14.44
2022-11-05T14:06:36.518Z,14.36
2022-11-05T14:09:08.524Z,14.26
2022-11-05T14:11:38.336Z,14.04
2022-11-05T14:14:15.816Z,14.14
2022-11-05T14:16:50.975Z,14.50
2022-11-05T14:19:50.038Z,14.42
2022-11-05T14:22:40.876Z,14.38
2022-11-05T14:25:59.981Z,14.39
2022-11-05T14:28:52.121Z,14.31
2022-11-05T14:34:46.215Z,14.51
2022-11-05T14:37:23.719Z,14.46
2022-11-05T14:39:53.462Z,14.51
2022-11-05T14:42:24.728Z,14.47
2022-11-05T14:44:59.422Z,14.45
2022-11-05T14:47:32.343Z,14.28
2022-11-05T14:50:07.489Z,14.13
2022-11-05T14:52:35.002Z,14.13
2022-11-05T14:55:03.821Z,14.02
2022-11-05T14:58:08.762Z,14.00
2022-11-05T15:00:46.085Z,13.83
2022-11-05T15:03:58.103Z,13.78
2022-11-05T15:06:30.003Z,13.60
2022-11-05T15:09:13.308Z,13.77
2022-11-05T15:11:58.822Z,13.76
2022-11-05T15:14:29.038Z,13.46
2022-11-05T15:17:01.455Z,13.56
2022-11-05T15:19:31.740Z,13.46
2022-11-05T15:22:06.001Z,13.37
2022-11-05T15:24:35.169Z,13.28
2022-11-05T15:27:15.521Z,13.30
2022-11-05T15:29:43.006Z,13.19
2022-11-05T15:32:16.684Z,13.13
2022-11-05T15:34:51.792Z,13.06
2022-11-05T15:37:26.107Z,12.96
2022-11-05T15:39:54.805Z,12.86
2022-11-05T15:42:24.296Z,12.74
2022-11-05T15:44:52.723Z,12.72
2022-11-05T15:47:23.785Z,12.55
2022-11-05T15:49:54.281Z,12.53
2022-11-05T15:52:24.775Z,12.35
2022-11-05T15:55:10.607Z,12.28
2022-11-05T15:57:46.440Z,12.20
2022-11-05T16:00:19.300Z,12.22
2022-11-05T16:02:54.547Z,12.16
2022-11-05T16:05:22.551Z,12.11
2022-11-05T16:07:51.738Z,12.13
2022-11-05T16:10:23.084Z,12.17
2022-11-05T16:12:51.334Z,12.14
2022-11-05T16:15:22.150Z,12.10
2022-11-05T16:17:53.755Z,11.90
2022-11-05T16:20:25.159Z,11.86
2022-11-05T16:22:57.671Z,11.83
2022-11-05T16:25:37.932Z,11.75
2022-11-05T16:28:18.486Z,11.74
2022-11-05T16:30:53.496Z,11.83
2022-11-05T16:33:21.707Z,11.77
2022-11-05T16:35:49.959Z,11.56
2022-11-05T16:38:20.512Z,11.55
2022-11-05T16:40:47.805Z,11.53
2022-11-05T16:43:19.380Z,11.24
2022-11-05T16:45:46.641Z,11.11
2022-11-05T16:48:16.230Z,10.91
2022-11-05T16:50:44.823Z,10.82
2022-11-05T16:53:13.448Z,10.74
2022-11-05T16:55:43.904Z,10.64
2022-11-05T16:58:19.514Z,10.78
2022-11-05T17:00:47.689Z,10.90
2022-11-05T17:03:15.723Z,10.86
2022-11-05T17:05:43.026Z,10.88
2022-11-05T17:08:11.113Z,10.85
2022-11-05T17:10:39.085Z,10.81
2022-11-05T17:13:10.210Z,10.67
2022-11-05T17:15:37.663Z,10.58
2022-11-05T17:18:06.353Z,10.69
2022-11-05T17:20:40.721Z,10.70
2022-11-05T17:23:10.986Z,10.58
2022-11-05T17:25:39.317Z,10.54
2022-11-05T17:28:09.549Z,10.57
2022-11-05T17:30:40.355Z,10.49
2022-11-05T17:33:11.331Z,10.53
2022-11-05T17:35:39.609Z,10.54
2022-11-05T17:38:08.040Z,10.62
2022-11-05T17:40:36.489Z,10.60
2022-11-05T17:43:04.875Z,10.58
2022-11-05T17:45:34.324Z,10.49
2022-11-05T17:48:01.962Z,10.32
2022-11-05T17:50:29.393Z,10.28
2022-11-05T17:52:57.115Z,10.26
2022-11-05T17:55:24.651Z,10.26
2022-11-05T17:57:53.064Z,10.24
2022-11-05T18:00:22.845Z,10.22
2022-11-05T18:02:53.422Z,10.27
2022-11-05T18:05:22.220Z,10.21
2022-11-05T18:07:51.350Z,10.19
2022-11-05T18:10:18.948Z,10.29
2022-11-05T18:12:47.034Z,10.25
2022-11-05T18:15:15.211Z,10.13
2022-11-05T18:17:43.728Z,9.94
2022-11-05T18:20:18.656Z,9.89
2022-11-05T18:22:50.094Z,9.88
2022-11-05T18:25:18.081Z,9.90
2022-11-05T18:27:47.478Z,9.86
2022-11-05T18:30:14.838Z,9.70
2022-11-05T18:32:43.682Z,9.63
2022-11-05T18:35:13.356Z,9.53
2022-11-05T18:37:41.373Z,9.45
2022-11-05T18:40:09.892Z,9.32
2022-11-05T18:42:38.185Z,9.24
2022-11-05T18:45:06.622Z,9.02
2022-11-05T18:47:34.604Z,9.01
2022-11-05T18:50:02.808Z,8.95
2022-11-05T18:52:32.776Z,8.78
2022-11-05T18:55:00.098Z,8.73
2022-11-05T18:57:28.597Z,8.62
2022-11-05T18:59:56.130Z,8.48
2022-11-05T19:02:24.018Z,8.52
2022-11-05T19:05:22.120Z,8.59
2022-11-05T19:07:40.688Z,8.24
2022-11-05T19:10:09.528Z,8.06
2022-11-05T19:12:37.553Z,8.09
2022-11-05T19:15:05.542Z,7.98
2022-11-05T19:17:33.799Z,7.96
2022-11-05T19:20:01.505Z,8.15
2022-11-05T19:22:29.310Z,8.13
2022-11-05T19:24:58.188Z,7.91
2022-11-05T19:27:26.367Z,7.83
2022-11-05T19:29:53.854Z,7.82
2022-11-05T19:32:21.933Z,7.87
2022-11-05T19:34:49.648Z,8.04
2022-11-05T19:37:17.580Z,7.91
2022-11-05T19:39:44.818Z,7.77
2022-11-05T19:42:14.232Z,7.61
2022-11-05T19:44:41.801Z,7.56
2022-11-05T19:47:09.956Z,7.39
2022-11-05T19:49:37.251Z,7.43
2022-11-05T19:52:05.329Z,7.38
2022-11-05T19:54:32.868Z,7.27
2022-11-05T19:57:00.457Z,7.27
2022-11-05T19:59:29.294Z,7.26
2022-11-05T20:01:57.209Z,7.27
2022-11-05T20:04:25.138Z,7.38
2022-11-05T20:06:53.117Z,7.22
2022-11-05T20:09:22.258Z,7.24
2022-11-05T20:11:52.368Z,7.30
2022-11-05T20:14:19.850Z,7.12
2022-11-05T20:16:49.554Z,7.15
2022-11-05T20:19:19.061Z,7.16
2022-11-05T20:21:47.267Z,7.10
2022-11-05T20:24:22.337Z,7.22
2022-11-05T20:26:52.179Z,7.21
2022-11-05T20:29:19.536Z,7.29
2022-11-05T20:31:49.094Z,7.42
2022-11-05T20:34:16.449Z,7.37
2022-11-05T20:36:44.151Z,7.51
2022-11-05T20:39:11.484Z,7.29
2022-11-05T20:41:39.230Z,7.35
2022-11-05T20:44:06.660Z,7.26
2022-11-05T20:46:34.506Z,7.19
2022-11-05T20:49:03.208Z,7.27
2022-11-05T20:51:30.953Z,7.37
2022-11-05T20:53:59.873Z,7.37
2022-11-05T20:56:30.666Z,7.46
2022-11-05T20:58:59.677Z,7.43
2022-11-05T21:02:01.380Z,7.32
2022-11-05T21:04:30.231Z,7.10
2022-11-05T21:06:57.888Z,6.85
2022-11-05T21:09:25.434Z,6.78
2022-11-05T21:11:53.141Z,6.85
2022-11-05T21:14:20.585Z,6.85
2022-11-05T21:16:48.391Z,6.77
2022-11-05T21:19:15.757Z,6.75
2022-11-05T21:21:44.966Z,6.68
2022-11-05T21:24:12.274Z,6.56
2022-11-05T21:26:39.963Z,6.52
2022-11-05T21:29:07.262Z,6.42
2022-11-05T21:31:36.063Z,6.54
2022-11-05T21:34:04.046Z,6.79
2022-11-05T21:36:31.891Z,6.78
2022-11-05T21:39:00.519Z,6.63
2022-11-05T21:41:28.223Z,6.71
2022-11-05T21:43:55.383Z,6.66
2022-11-05T21:46:23.285Z,6.55
2022-11-05T21:48:50.584Z,6.42
2022-11-05T21:51:18.269Z,6.26
2022-11-05T21:53:45.486Z,6.19
2022-11-05T21:56:18.999Z,6.17
2022-11-05T21:58:46.853Z,6.10
2022-11-05T22:01:14.239Z,6.03
2022-11-05T22:03:41.992Z,5.92
2022-11-05T22:06:09.359Z,5.84
2022-11-05T22:08:37.086Z,5.81
2022-11-05T22:11:04.544Z,5.79
2022-11-05T22:13:33.607Z,5.78
2022-11-05T22:16:01.072Z,5.82
2022-11-05T22:18:28.821Z,5.65
2022-11-05T22:20:56.072Z,5.66
2022-11-05T22:23:23.783Z,5.75
2022-11-05T22:25:58.009Z,5.76
2022-11-05T22:28:25.622Z,5.66
2022-11-05T22:30:54.331Z,5.76
2022-11-05T22:33:21.990Z,5.83
2022-11-05T22:35:49.335Z,5.81
2022-11-05T22:38:17.203Z,5.81
2022-11-05T22:40:44.627Z,5.95
2022-11-05T22:43:12.225Z,6.15
2022-11-05T22:45:39.432Z,5.87
2022-11-05T22:48:08.950Z,5.65
2022-11-05T22:50:36.286Z,5.67
2022-11-05T22:53:03.997Z,5.62
2022-11-05T22:55:31.440Z,5.60
2022-11-05T22:57:59.327Z,5.67
2022-11-05T23:00:34.887Z,5.46
2022-11-05T23:03:03.659Z,5.36
2022-11-05T23:05:32.604Z,5.23
2022-11-05T23:08:00.292Z,5.14
2022-11-05T23:10:27.640Z,4.99
2022-11-05T23:12:55.237Z,4.89
2022-11-05T23:15:23.294Z,5.00
2022-11-05T23:17:50.591Z,5.00
2022-11-05T23:20:20.005Z,4.97
2022-11-05T23:22:49.142Z,4.84
2022-11-05T23:25:18.711Z,4.78
2022-11-05T23:27:49.593Z,4.88
2022-11-05T23:30:18.925Z,4.74
2022-11-05T23:32:47.059Z,4.51
2022-11-05T23:35:14.577Z,4.45
2022-11-05T23:37:42.428Z,4.69
2022-11-05T23:40:14.222Z,4.59
2022-11-05T23:42:42.239Z,4.40
2022-11-05T23:45:14.436Z,4.58
2022-11-05T23:47:43.157Z,4.70
2022-11-05T23:50:10.363Z,4.40
2022-11-05T23:52:38.377Z,4.46
2022-11-05T23:55:06.038Z,4.28
2022-11-05T23:57:35.263Z,4.24
